Time;durP1;ratioP1;P1;durP2;ratioP2;P2;SDS_P1;SDS_P2;PMS_P1;PMS_P2;Temp;Humidity;BMP_temperature;BMP_pressure;BME280_temperature;BME280_humidity;BME280_pressure;Samples;Min_cycle;Max_cycle;Signal;HPM_P1;HPM_P2
2023/03/21 00:04:27;;;;;;;7.90;6.37;;;12.20;90.20;;;10.97;69.23;100103.75;10218957;28;96879;-95
2023/03/21 00:09:53;;;;;;;8.93;6.60;;;12.30;90.60;;;11.05;68.72;100105.56;10253458;28;96814;-95
2023/03/21 00:15:10;;;;;;;9.63;6.43;;;12.30;90.60;;;10.93;68.63;100105.94;10229194;28;97730;-94
2023/03/21 00:20:16;;;;;;;10.20;6.43;;;12.20;90.50;;;10.77;68.90;100098.03;10291763;28;96654;-95
2023/03/21 00:25:19;;;;;;;11.03;8.13;;;12.10;90.70;;;10.64;68.92;100100.41;10255765;28;98065;-94
2023/03/21 00:30:22;;;;;;;9.83;7.60;;;12.00;90.90;;;10.55;69.62;100096.09;10215808;28;96440;-94
2023/03/21 00:35:26;;;;;;;10.37;7.83;;;11.90;91.30;;;10.43;69.67;100085.84;10236679;28;96608;-94
2023/03/21 00:40:49;;;;;;;8.90;7.10;;;11.80;91.40;;;10.30;69.91;100079.38;10230357;28;96557;-95
2023/03/21 00:45:51;;;;;;;8.87;7.20;;;11.60;91.80;;;10.20;70.66;100068.94;10256547;28;96600;-95
2023/03/21 00:50:58;;;;;;;10.27;7.73;;;11.50;92.20;;;10.12;71.05;100076.91;10295271;28;96521;-95
2023/03/21 00:56:02;;;;;;;12.10;8.30;;;11.40;92.60;;;10.02;71.38;100070.94;10199747;28;96562;-94
2023/03/21 01:01:08;;;;;;;8.87;7.47;;;11.40;93.00;;;9.91;71.44;100066.81;10248445;28;96565;-95
2023/03/21 01:06:12;;;;;;;11.70;8.50;;;11.20;93.20;;;9.84;72.22;100066.63;10300663;28;96646;-94
2023/03/21 01:11:19;;;;;;;9.70;7.37;;;11.20;93.70;;;9.81;72.46;100052.88;10270148;28;96975;-95
2023/03/21 01:16:23;;;;;;;10.20;7.90;;;11.10;94.10;;;9.79;72.71;100045.06;10264643;28;96624;-94
2023/03/21 01:21:26;;;;;;;11.07;6.90;;;11.10;94.30;;;9.76;72.84;100045.41;10277164;28;96369;-96
2023/03/21 01:26:29;;;;;;;11.43;7.43;;;11.10;94.40;;;9.73;73.03;100047.56;10268368;28;96508;-94
2023/03/21 01:31:32;;;;;;;9.80;7.40;;;11.10;94.80;;;9.75;73.14;100051.69;10254316;28;96681;-94
2023/03/21 01:36:36;;;;;;;10.87;7.63;;;11.00;95.00;;;9.76;73.00;100052.53;10262722;28;96862;-95
2023/03/21 01:41:42;;;;;;;10.87;7.20;;;11.00;95.20;;;9.77;72.93;100052.34;10271889;28;96576;-94
2023/03/21 01:46:52;;;;;;;12.97;7.80;;;11.10;95.40;;;9.73;72.70;100045.75;10260746;28;96592;-94
2023/03/21 01:52:25;;;;;;;10.30;7.07;;;11.00;95.50;;;9.68;72.96;100053.38;10254425;28;96856;-94
2023/03/21 01:57:46;;;;;;;8.43;7.20;;;11.00;95.70;;;9.63;73.36;100047.72;10223522;28;96413;-92
2023/03/21 02:03:10;;;;;;;8.70;7.17;;;11.00;95.90;;;9.63;73.55;100048.53;10225797;28;97999;-93
2023/03/21 02:08:22;;;;;;;9.27;6.83;;;11.00;96.20;;;9.64;73.85;100052.03;10261832;28;97316;-94
2023/03/21 02:13:40;;;;;;;9.40;6.87;;;11.00;96.30;;;9.67;73.96;100051.72;10241873;28;96563;-94
2023/03/21 02:19:50;;;;;;;11.87;7.20;;;11.00;96.40;;;9.70;74.04;100051.38;10253650;28;97432;-93
2023/03/21 02:25:42;;;;;;;7.83;6.17;;;11.00;96.50;;;9.71;73.48;100042.41;10216458;28;96599;-94
2023/03/21 02:31:04;;;;;;;7.60;6.20;;;11.00;96.30;;;9.71;73.80;100053.03;10259281;28;96758;-93
2023/03/21 02:36:44;;;;;;;7.07;5.53;;;11.10;96.30;;;9.75;73.31;100049.03;10275185;28;96699;-93
2023/03/21 02:42:08;;;;;;;6.80;5.07;;;11.10;96.30;;;9.71;73.02;100046.88;10255609;28;96472;-94
2023/03/21 02:47:21;;;;;;;9.03;6.20;;;11.00;96.20;;;9.73;73.11;100056.34;10268861;28;97555;-95
2023/03/21 02:52:30;;;;;;;7.13;5.00;;;11.00;96.20;;;9.75;73.05;100048.22;10288575;28;98256;-95
2023/03/21 02:57:43;;;;;;;6.00;4.23;;;11.10;96.30;;;9.79;72.60;100042.41;10240446;28;96595;-94
2023/03/21 03:02:49;;;;;;;5.90;4.67;;;11.10;96.20;;;9.79;72.76;100044.25;10236942;28;96635;-94
2023/03/21 03:08:51;;;;;;;5.97;3.87;;;11.10;96.10;;;9.82;72.49;100054.50;10269021;28;96454;-94
2023/03/21 03:15:10;;;;;;;5.77;4.50;;;11.10;96.10;;;9.81;72.38;100039.59;10264605;28;96645;-94
2023/03/21 03:20:28;;;;;;;4.93;3.93;;;11.10;96.10;;;9.75;71.95;100056.19;10189407;28;96932;-95
2023/03/21 03:25:41;;;;;;;4.87;3.77;;;11.10;95.80;;;9.56;72.02;100055.50;10255533;28;96565;-93
2023/03/21 03:30:49;;;;;;;5.60;4.07;;;11.00;95.70;;;9.45;72.60;100057.66;10234842;28;96834;-94
2023/03/21 03:36:13;;;;;;;7.37;4.13;;;10.90;95.90;;;9.50;73.48;100050.88;10241405;28;96589;-94
2023/03/21 03:41:43;;;;;;;5.67;3.60;;;10.80;96.50;;;9.58;73.33;100045.56;10271376;28;96718;-94
2023/03/21 03:47:41;;;;;;;4.93;3.90;;;10.90;96.70;;;9.74;72.87;100065.97;10242096;28;97551;-93
2023/03/21 03:53:16;;;;;;;6.53;4.07;;;11.00;96.60;;;9.96;72.44;100059.19;10251424;28;96573;-91
2023/03/21 03:58:23;;;;;;;5.23;3.70;;;11.20;96.60;;;10.10;71.55;100061.13;10275111;28;96644;-93
2023/03/21 04:03:44;;;;;;;4.53;3.13;;;11.30;96.10;;;10.11;70.92;100054.81;10260451;28;98426;-93
2023/03/21 04:08:52;;;;;;;6.73;5.43;;;11.40;95.90;;;10.09;71.14;100048.03;10233099;28;96785;-95
2023/03/21 04:13:56;;;;;;;8.43;4.40;;;11.40;95.80;;;10.10;71.04;100055.81;10230490;28;96941;-93
2023/03/21 04:19:00;;;;;;;5.90;4.20;;;11.40;95.80;;;10.14;70.78;100053.69;10230830;28;96553;-94
2023/03/21 04:24:06;;;;;;;5.20;3.73;;;11.40;95.80;;;10.11;70.83;100040.72;10260477;28;97603;-93
2023/03/21 04:29:09;;;;;;;8.10;4.57;;;11.40;95.70;;;10.08;70.94;100039.25;10250297;28;96637;-94
2023/03/21 04:34:12;;;;;;;5.17;4.20;;;11.40;96.00;;;10.08;70.97;100035.75;10257168;28;96675;-94
2023/03/21 04:39:16;;;;;;;6.70;4.50;;;11.40;95.80;;;10.05;71.08;100033.44;10257191;28;97084;-93
2023/03/21 04:44:19;;;;;;;4.93;3.70;;;11.40;95.80;;;9.98;70.99;100029.78;10249494;28;97162;-93
2023/03/21 04:49:22;;;;;;;5.50;4.30;;;11.30;95.80;;;9.98;71.14;100043.06;10270926;28;96688;-92
2023/03/21 04:54:25;;;;;;;5.73;4.20;;;11.30;95.80;;;9.93;71.15;100049.69;10283018;28;96592;-93
2023/03/21 04:59:28;;;;;;;6.70;4.30;;;11.30;95.80;;;9.93;71.43;100051.53;10255095;28;99482;-95
2023/03/21 05:04:31;;;;;;;7.03;4.10;;;11.30;95.90;;;9.87;71.39;100047.72;10255511;28;97206;-94
2023/03/21 05:09:34;;;;;;;6.10;5.07;;;11.20;95.90;;;9.82;71.82;100054.50;10240517;28;96451;-94
2023/03/21 05:14:38;;;;;;;7.43;5.03;;;11.20;96.10;;;9.84;72.20;100055.19;10263736;28;96631;-93
2023/03/21 05:19:41;;;;;;;5.97;4.27;;;11.20;96.30;;;9.86;72.34;100056.69;10250864;28;98391;-93
2023/03/21 05:24:49;;;;;;;6.50;4.23;;;11.20;96.40;;;9.86;72.41;100056.69;10267397;28;97289;-94
2023/03/21 05:29:52;;;;;;;5.97;4.13;;;11.20;96.40;;;9.96;72.29;100071.63;10266564;28;97922;-93
2023/03/21 05:34:55;;;;;;;4.83;3.73;;;11.30;96.40;;;10.06;71.88;100066.94;10263732;28;96632;-95
2023/03/21 05:39:58;;;;;;;4.77;4.03;;;11.40;96.40;;;10.22;71.33;100071.41;10250497;28;96785;-94
2023/03/21 05:45:02;;;;;;;4.00;3.37;;;11.50;96.30;;;10.37;70.70;100075.88;10251229;28;96724;-94
2023/03/21 05:50:06;;;;;;;5.17;3.27;;;11.60;96.10;;;10.56;70.16;100077.34;10236896;28;97175;-94
2023/03/21 05:55:09;;;;;;;5.07;3.57;;;11.80;95.80;;;10.71;69.71;100080.13;10215710;28;96766;-93
2023/03/21 06:00:13;;;;;;;4.83;3.43;;;11.90;95.60;;;10.86;69.29;100073.09;10248205;28;96575;-93
2023/03/21 06:05:16;;;;;;;5.37;3.40;;;12.10;95.50;;;11.04;68.60;100074.69;10235956;28;97642;-90
2023/03/21 06:10:20;;;;;;;5.63;3.50;;;12.20;95.10;;;11.23;68.29;100076.91;10252155;28;96690;-94
2023/03/21 06:15:23;;;;;;;6.83;3.83;;;12.40;95.00;;;11.38;67.35;100083.09;10238232;28;98175;-94
2023/03/21 06:20:27;;;;;;;6.57;3.87;;;12.50;94.60;;;11.48;67.07;100081.06;10257552;28;97695;-93
2023/03/21 06:25:29;;;;;;;10.87;7.87;;;12.70;94.30;;;11.65;66.91;100078.28;10257380;28;97105;-92
2023/03/21 06:30:32;;;;;;;21.53;11.70;;;12.80;94.20;;;11.76;67.05;100067.22;10258655;28;96777;-89
2023/03/21 06:35:35;;;;;;;7.20;4.90;;;12.90;94.10;;;11.87;66.28;100069.47;10259750;28;97089;-87
2023/03/21 06:40:39;;;;;;;5.93;4.87;;;13.00;93.80;;;11.94;66.26;100073.09;10221321;28;98157;-87
2023/03/21 06:45:44;;;;;;;6.47;4.47;;;13.10;93.70;;;12.01;65.62;100076.69;10250853;28;96691;-86
2023/03/21 06:50:49;;;;;;;7.07;4.57;;;13.20;93.40;;;12.11;64.94;100087.06;10237429;28;96668;-86
2023/03/21 06:55:53;;;;;;;5.43;4.20;;;13.30;93.10;;;12.19;65.04;100083.53;10245639;28;97372;-90
2023/03/21 07:00:59;;;;;;;6.97;4.33;;;13.40;92.90;;;12.35;64.25;100088.66;10235861;28;98760;-91
2023/03/21 07:06:12;;;;;;;5.57;4.30;;;13.50;92.60;;;12.46;64.49;100082.91;10237687;28;97249;-91
2023/03/21 07:11:15;;;;;;;6.70;4.37;;;13.60;92.50;;;12.57;63.39;100086.97;10288961;28;96712;-90
2023/03/21 07:16:20;;;;;;;5.50;4.07;;;13.80;92.20;;;12.65;63.36;100080.69;10239889;28;96733;-91
2023/03/21 07:21:23;;;;;;;4.80;3.90;;;13.80;92.00;;;12.80;62.85;100076.19;10257321;28;96471;-91
2023/03/21 07:26:26;;;;;;;5.43;3.73;;;14.00;91.70;;;13.00;61.89;100074.59;10222680;28;97718;-90
2023/03/21 07:31:30;;;;;;;6.90;4.20;;;14.20;91.20;;;13.28;61.55;100071.28;10243339;28;96835;-88
2023/03/21 07:36:33;;;;;;;6.27;4.43;;;14.40;90.90;;;13.68;60.88;100077.03;10218284;28;96735;-90
2023/03/21 07:41:36;;;;;;;6.20;4.13;;;14.80;90.60;;;14.11;59.07;100065.28;10245804;28;97097;-89
2023/03/21 07:46:39;;;;;;;5.53;3.75;;;15.20;89.80;;;14.50;57.44;100063.09;10224233;28;98938;-88
2023/03/21 07:51:42;;;;;;;5.22;4.00;;;15.60;87.70;;;14.45;56.41;100064.50;10235157;28;96544;-89
2023/03/21 07:56:45;;;;;;;4.82;3.47;;;15.70;86.10;;;14.52;57.19;100064.56;10253138;28;96614;-89
2023/03/21 08:01:49;;;;;;;4.97;3.17;;;15.70;86.20;;;14.84;56.65;100070.28;10245348;28;96708;-90
2023/03/21 08:06:54;;;;;;;4.00;1.90;;;15.90;85.40;;;15.70;50.48;100058.00;10239712;28;96584;-92
2023/03/21 08:11:57;;;;;;;3.65;2.65;;;16.50;80.10;;;16.74;48.33;100059.16;10250171;28;98274;-89
2023/03/21 08:17:00;;;;;;;3.30;2.42;;;17.10;76.80;;;17.04;46.87;100062.16;10267065;28;96730;-88
2023/03/21 08:22:05;;;;;;;3.67;2.22;;;17.60;75.00;;;17.24;45.75;100057.50;10256017;28;97269;-90
2023/03/21 08:27:08;;;;;;;5.90;3.20;;;17.90;72.10;;;17.74;45.58;100059.50;10249623;28;96558;-89
2023/03/21 08:32:11;;;;;;;4.85;2.85;;;18.20;71.70;;;18.05;44.05;100064.00;10262273;28;97233;-90
2023/03/21 08:37:15;;;;;;;5.50;2.75;;;18.60;70.00;;;18.11;42.87;100063.13;10258455;28;97595;-90
2023/03/21 08:42:20;;;;;;;3.55;2.53;;;18.80;67.20;;;18.26;41.93;100063.59;10243177;28;96564;-89
2023/03/21 08:47:24;;;;;;;4.57;2.30;;;19.00;65.80;;;18.79;41.01;100060.41;10258911;28;97019;-90
2023/03/21 08:52:27;;;;;;;2.42;1.70;;;19.40;65.10;;;18.92;39.10;100060.25;10256064;28;97584;-89
2023/03/21 08:57:30;;;;;;;3.20;1.90;;;19.50;61.80;;;18.97;39.22;100071.16;10258970;28;96508;-89
2023/03/21 09:02:33;;;;;;;2.58;1.77;;;19.60;61.40;;;19.04;39.02;100063.00;10277581;28;96391;-89
2023/03/21 09:07:39;;;;;;;2.10;1.60;;;19.80;60.70;;;19.11;38.11;100068.28;10271285;28;98119;-89
2023/03/21 09:12:43;;;;;;;1.73;1.10;;;19.90;59.30;;;18.97;38.04;100063.09;10253892;28;96605;-91
2023/03/21 09:17:51;;;;;;;2.90;1.55;;;19.80;58.20;;;18.73;38.12;100063.16;10243250;28;96454;-92
2023/03/21 09:22:55;;;;;;;2.28;1.60;;;19.70;57.60;;;18.66;39.00;100068.59;10288032;28;96657;-92
2023/03/21 09:28:03;;;;;;;2.97;1.85;;;19.50;58.70;;;18.70;39.40;100062.56;10221695;28;96619;-91
2023/03/21 09:33:07;;;;;;;2.05;1.77;;;19.30;59.10;;;18.45;39.39;100067.16;10250070;28;97548;-90
2023/03/21 09:38:10;;;;;;;1.85;1.40;;;19.40;58.80;;;18.26;38.90;100060.91;10238715;28;96574;-91
2023/03/21 09:43:41;;;;;;;2.10;1.38;;;19.20;58.00;;;18.26;39.06;100058.22;10260072;28;96619;-90
2023/03/21 09:49:08;;;;;;;2.42;1.20;;;19.30;57.80;;;18.65;38.81;100054.31;10260116;28;96614;-90
2023/03/21 09:54:32;;;;;;;3.40;1.70;;;19.60;58.10;;;19.17;38.59;100045.84;10247102;28;96610;-90
2023/03/21 09:59:40;;;;;;;2.13;1.50;;;20.10;57.90;;;19.65;37.79;100044.97;10243821;28;96835;-93
2023/03/21 10:04:45;;;;;;;3.47;1.58;;;20.40;57.30;;;19.86;36.12;100028.25;10286170;28;96609;-89
2023/03/21 10:09:51;;;;;;;2.63;1.60;;;20.70;55.50;;;20.41;35.04;100029.78;10234625;28;98500;-86
2023/03/21 10:14:57;;;;;;;4.30;2.15;;;21.00;54.40;;;19.94;37.14;100036.00;10285637;28;96652;-89
2023/03/21 10:20:17;;;;;;;2.75;1.60;;;20.80;55.50;;;19.91;36.37;100033.78;10247441;28;97480;-89
2023/03/21 10:25:35;;;;;;;2.53;1.63;;;21.00;54.90;;;19.74;36.48;100035.50;10246732;28;96701;-92
2023/03/21 10:30:54;;;;;;;2.50;1.60;;;20.90;54.60;;;19.06;37.77;100033.13;10259732;28;97043;-90
2023/03/21 10:36:26;;;;;;;2.45;1.67;;;20.30;55.20;;;19.14;36.62;100035.53;10233857;28;96558;-94
2023/03/21 10:41:31;;;;;;;1.90;1.50;;;20.30;54.10;;;19.17;36.27;100035.88;10242763;28;97177;-92
2023/03/21 10:46:34;;;;;;;2.22;1.30;;;20.30;54.10;;;19.48;36.49;100034.81;10259620;28;98612;-94
2023/03/21 10:51:38;;;;;;;6.72;3.25;;;20.60;53.90;;;20.00;35.93;100013.50;10302105;28;96515;-89
2023/03/21 10:57:08;;;;;;;5.35;2.28;;;20.90;54.10;;;20.78;35.11;100006.03;10258436;28;97038;-94
2023/03/21 11:02:27;;;;;;;3.35;2.58;;;21.90;53.20;;;20.84;34.69;100007.78;10254395;28;98033;-89
2023/03/21 11:07:31;;;;;;;3.28;2.15;;;22.30;52.50;;;21.05;33.48;99999.03;10254982;28;96573;-88
2023/03/21 11:12:39;;;;;;;2.65;1.80;;;22.40;51.30;;;21.19;33.99;99993.31;10230117;28;96861;-86
2023/03/21 11:17:44;;;;;;;2.73;1.93;;;22.60;51.00;;;21.52;32.22;99987.97;10251362;28;96607;-87
2023/03/21 11:22:48;;;;;;;2.40;1.38;;;23.00;49.90;;;21.34;31.96;99974.69;10234293;28;97393;-87
2023/03/21 11:27:54;;;;;;;2.17;1.50;;;22.90;48.50;;;21.64;31.30;99964.38;10198703;28;96456;-88
2023/03/21 11:33:05;;;;;;;2.30;1.65;;;23.30;48.00;;;21.39;32.65;99963.97;10252716;28;96839;-90
2023/03/21 11:38:26;;;;;;;2.50;2.00;;;22.90;49.20;;;21.10;33.20;99960.44;10252074;28;97440;-89
2023/03/21 11:43:38;;;;;;;2.60;2.00;;;22.70;49.30;;;20.88;32.57;99959.50;10247167;28;98424;-89
2023/03/21 11:48:45;;;;;;;2.05;1.67;;;22.50;48.60;;;20.65;34.12;99945.03;10257980;28;96848;-90
2023/03/21 11:54:09;;;;;;;2.25;1.58;;;22.30;49.50;;;20.90;32.94;99952.78;10244753;28;97363;-86
2023/03/21 11:59:15;;;;;;;2.80;2.13;;;22.50;48.40;;;21.16;32.84;99945.16;10247800;28;96585;-87
2023/03/21 12:04:42;;;;;;;3.08;1.70;;;22.60;48.80;;;21.01;31.89;99932.19;10257589;28;96812;-88
2023/03/21 12:10:19;;;;;;;3.20;2.40;;;22.60;47.80;;;20.20;32.70;99932.19;10246006;28;96688;-86
2023/03/21 12:15:43;;;;;;;4.00;2.58;;;22.20;47.50;;;19.08;35.31;99944.88;10190550;28;96965;-83
2023/03/21 12:20:55;;;;;;;3.92;2.58;;;20.90;49.90;;;18.31;37.35;99942.72;10270604;28;97641;-85
2023/03/21 12:26:26;;;;;;;4.72;2.10;;;19.90;52.00;;;17.70;37.96;99937.34;10233577;28;96706;-91
2023/03/21 12:31:47;;;;;;;3.67;2.17;;;19.20;53.00;;;17.30;38.68;99941.16;10222663;28;96658;-87
2023/03/21 12:37:21;;;;;;;3.45;1.95;;;18.60;54.00;;;16.93;39.64;99933.97;10246606;28;96582;-86
2023/03/21 12:42:59;;;;;;;3.85;2.40;;;18.30;54.90;;;17.56;38.65;99918.63;10247567;28;96749;-86
2023/03/21 12:48:23;;;;;;;5.43;1.90;;;18.90;54.20;;;18.54;36.51;99900.88;10247973;28;97172;-87
2023/03/21 12:53:53;;;;;;;3.17;1.77;;;20.00;51.90;;;18.46;36.27;99904.66;10206114;28;97244;-86
2023/03/21 12:59:30;;;;;;;2.20;1.43;;;20.00;51.70;;;18.25;36.41;99905.97;10251869;28;97610;-87
2023/03/21 13:05:00;;;;;;;2.17;1.45;;;19.70;51.70;;;18.09;36.69;99902.00;10258598;28;96716;-87
2023/03/21 13:10:15;;;;;;;2.78;2.00;;;19.40;52.30;;;18.05;37.52;99902.66;10244401;28;98321;-85
2023/03/21 13:15:56;;;;;;;2.90;1.70;;;19.40;52.80;;;18.14;36.73;99887.91;10241462;28;97673;-86
2023/03/21 13:21:24;;;;;;;2.25;1.40;;;19.50;52.30;;;18.42;36.52;99877.41;10248861;28;96681;-85
2023/03/21 13:26:40;;;;;;;3.90;1.45;;;19.70;52.10;;;18.29;35.76;99882.97;10235944;28;98682;-86
2023/03/21 13:31:47;;;;;;;2.70;1.52;;;19.70;51.40;;;17.84;37.28;99885.13;10237441;28;96637;-86
2023/03/21 13:36:56;;;;;;;3.53;1.67;;;19.20;52.10;;;17.69;37.88;99874.69;10228086;28;96577;-85
2023/03/21 13:42:05;;;;;;;3.70;1.60;;;19.10;53.80;;;17.91;36.81;99873.25;10241682;28;96553;-87
2023/03/21 13:47:50;;;;;;;4.47;1.50;;;19.40;52.40;;;18.05;35.52;99870.41;10218733;28;96430;-85
2023/03/21 13:53:19;;;;;;;2.78;1.90;;;19.50;50.90;;;18.18;35.37;99862.19;10261582;28;96617;-85
2023/03/21 13:58:42;;;;;;;18.85;9.23;;;19.60;50.50;;;18.30;34.25;99856.88;10247907;28;96715;-85
2023/03/21 14:03:46;;;;;;;14.75;8.65;;;20.00;49.40;;;18.33;34.42;99848.34;10232360;28;96461;-86
2023/03/21 14:08:49;;;;;;;2.42;1.73;;;19.90;49.30;;;18.43;34.89;99852.16;10237567;28;98504;-88
2023/03/21 14:13:53;;;;;;;2.58;1.20;;;20.10;49.70;;;18.64;35.09;99831.16;10252430;28;96654;-89
2023/03/21 14:19:02;;;;;;;2.45;1.60;;;20.30;49.80;;;18.95;35.44;99839.00;10238606;28;97155;-90
2023/03/21 14:24:12;;;;;;;3.53;1.50;;;20.70;50.50;;;19.14;33.83;99828.16;10247637;28;96649;-95
2023/03/21 14:29:28;;;;;;;3.45;1.70;;;21.00;48.70;;;19.05;33.50;99833.03;10263890;28;96653;-91
2023/03/21 14:34:36;;;;;;;1.50;1.30;;;20.90;47.90;;;19.04;33.54;99823.31;10266447;28;96582;-90
2023/03/21 14:39:39;;;;;;;2.08;1.23;;;20.80;48.40;;;19.28;33.39;99809.88;10244439;28;96889;-93
2023/03/21 14:44:49;;;;;;;2.78;1.27;;;21.00;48.10;;;19.36;32.85;99812.22;10230707;28;97007;-91
2023/03/21 14:50:02;;;;;;;3.38;1.52;;;21.20;47.80;;;19.38;32.67;99808.25;10232406;28;98057;-91
2023/03/21 14:55:15;;;;;;;4.22;2.38;;;21.40;47.20;;;19.58;33.55;99812.44;10248749;28;96683;-92
2023/03/21 15:00:28;;;;;;;2.33;1.70;;;21.60;47.80;;;19.57;32.86;99818.91;10278922;28;96641;-93
2023/03/21 15:05:36;;;;;;;3.35;2.20;;;21.70;47.30;;;19.20;34.48;99814.56;10275306;28;96456;-92
2023/03/21 15:10:41;;;;;;;2.47;1.77;;;21.40;48.30;;;19.07;35.03;99814.78;10245204;28;96630;-94
2023/03/21 15:15:45;;;;;;;2.47;1.60;;;21.20;48.70;;;19.05;35.54;99821.44;10253084;28;96619;-92
2023/03/21 15:20:50;;;;;;;2.90;1.92;;;21.20;49.30;;;19.05;35.20;99816.06;10281531;28;98047;-92
2023/03/21 15:25:53;;;;;;;3.15;2.20;;;21.20;49.40;;;18.68;36.05;99819.75;10270071;28;98501;-93
2023/03/21 15:30:56;;;;;;;2.97;2.33;;;20.80;49.90;;;18.44;36.68;99801.84;10245119;28;97727;-94
2023/03/21 15:35:59;;;;;;;3.92;1.80;;;20.60;50.30;;;18.27;36.57;99807.03;10232069;28;96616;-91
2023/03/21 15:41:20;;;;;;;2.83;1.85;;;20.40;50.50;;;18.08;37.72;99817.00;10251167;28;96656;-93
2023/03/21 15:46:43;;;;;;;4.38;3.15;;;20.10;50.90;;;17.97;36.59;99808.88;10254511;28;96570;-93
2023/03/21 15:51:56;;;;;;;2.55;1.88;;;20.00;50.30;;;17.93;36.27;99811.19;10221509;28;97707;-93
2023/03/21 15:57:08;;;;;;;9.32;5.47;;;19.90;50.20;;;17.71;36.68;99810.81;10241500;28;98426;-86
2023/03/21 16:02:22;;;;;;;9.02;5.00;;;19.60;50.50;;;17.38;36.93;99816.50;10235775;28;96555;-95
2023/03/21 16:07:26;;;;;;;7.63;3.70;;;19.00;51.60;;;16.82;38.13;99812.03;10222193;28;96548;-90
2023/03/21 16:12:29;;;;;;;3.65;2.63;;;18.40;51.80;;;16.34;39.09;99828.63;10236609;28;96874;-84
2023/03/21 16:17:38;;;;;;;3.60;2.70;;;17.80;53.20;;;15.86;40.38;99820.97;10254654;28;97635;-89
2023/03/21 16:22:41;;;;;;;4.60;2.85;;;17.20;54.50;;;15.49;41.65;99831.34;10260767;28;97000;-88
2023/03/21 16:27:46;;;;;;;3.58;3.00;;;16.80;55.70;;;15.19;42.84;99828.28;10230512;28;96798;-89
2023/03/21 16:32:50;;;;;;;5.07;3.13;;;16.50;56.90;;;14.87;43.72;99837.13;10237381;28;97406;-91
2023/03/21 16:37:53;;;;;;;6.32;3.70;;;16.20;57.80;;;14.62;44.54;99843.06;10263299;28;96664;-87
2023/03/21 16:42:56;;;;;;;5.28;3.72;;;16.00;58.60;;;14.38;44.99;99844.41;10237955;28;97556;-88
2023/03/21 16:47:59;;;;;;;6.07;3.80;;;15.70;59.00;;;14.18;45.66;99859.56;10229680;28;97676;-87
2023/03/21 16:53:03;;;;;;;6.33;4.27;;;15.50;59.80;;;14.00;46.29;99864.63;10257032;28;96448;-89
2023/03/21 16:58:07;;;;;;;7.40;4.20;;;15.30;60.30;;;13.87;46.80;99873.38;10259828;28;98622;-89
2023/03/21 17:03:18;;;;;;;14.97;9.77;;;15.10;60.90;;;13.71;46.99;99873.69;10233573;28;98067;-86
2023/03/21 17:08:21;;;;;;;6.90;4.97;;;15.00;61.40;;;13.59;47.42;99870.75;10236533;28;98849;-85
2023/03/21 17:13:24;;;;;;;6.33;4.53;;;14.80;61.60;;;13.53;47.70;99872.34;10237242;28;96402;-85
2023/03/21 17:18:28;;;;;;;6.77;4.73;;;14.80;62.10;;;13.49;47.94;99883.59;10247155;28;98371;-87
2023/03/21 17:23:31;;;;;;;6.67;4.43;;;14.70;62.30;;;13.37;48.20;99885.97;10262093;28;96471;-87
2023/03/21 17:28:38;;;;;;;20.03;9.83;;;14.60;62.40;;;13.25;48.29;99887.50;10253118;28;96422;-89
2023/03/21 17:33:42;;;;;;;17.40;9.73;;;14.50;62.80;;;13.11;48.94;99883.88;10237251;28;96743;-85
2023/03/21 17:38:45;;;;;;;10.87;7.30;;;14.40;63.10;;;13.05;48.81;99887.31;10207422;28;96504;-87
2023/03/21 17:43:50;;;;;;;5.20;4.43;;;14.30;63.80;;;12.89;49.02;99888.38;10238221;28;96943;-86
2023/03/21 17:48:54;;;;;;;7.23;5.50;;;14.20;63.60;;;12.71;49.70;99896.00;10250217;28;96715;-87
2023/03/21 17:53:57;;;;;;;7.77;5.20;;;14.00;64.10;;;12.51;50.37;99893.94;10276240;28;97844;-86
2023/03/21 17:59:06;;;;;;;7.23;4.13;;;13.90;64.50;;;12.51;50.55;99903.78;10246559;28;97277;-88
2023/03/21 18:04:10;;;;;;;6.87;4.10;;;13.80;64.80;;;12.48;50.52;99905.00;10253966;28;98128;-89
2023/03/21 18:09:15;;;;;;;8.17;4.23;;;13.70;65.30;;;12.38;50.22;99907.13;10220839;28;97015;-89
2023/03/21 18:14:23;;;;;;;5.80;3.60;;;13.70;65.00;;;12.25;50.87;99918.44;10249288;28;96651;-90
2023/03/21 18:19:32;;;;;;;5.83;3.77;;;13.60;65.10;;;12.13;51.68;99914.59;10259095;28;98603;-92
2023/03/21 18:24:36;;;;;;;5.67;3.90;;;13.50;65.70;;;12.01;52.00;99910.75;10275895;28;96466;-92
2023/03/21 18:29:39;;;;;;;7.53;3.93;;;13.40;65.90;;;11.94;52.07;99915.97;10248121;28;97188;-92
2023/03/21 18:35:09;;;;;;;5.90;4.70;;;13.30;66.40;;;11.92;52.46;99923.31;10287885;28;97672;-93
2023/03/21 18:40:13;;;;;;;7.80;5.43;;;13.20;66.70;;;11.83;52.55;99924.44;10257694;28;97000;-92
2023/03/21 18:45:17;;;;;;;7.87;5.40;;;13.20;67.10;;;11.79;52.78;99931.09;10245126;28;97479;-93
2023/03/21 18:50:20;;;;;;;7.60;5.03;;;13.10;67.50;;;11.72;52.96;99936.31;10255965;28;96465;-93
2023/03/21 18:55:24;;;;;;;6.43;4.23;;;13.00;67.60;;;11.77;52.84;99935.78;10263214;28;96914;-93
2023/03/21 19:00:49;;;;;;;7.43;4.70;;;13.00;67.60;;;11.75;53.07;99935.09;10234297;28;98509;-93
2023/03/21 19:05:58;;;;;;;6.87;4.47;;;13.00;67.60;;;11.68;53.06;99936.84;10287110;28;97248;-93
2023/03/21 19:11:02;;;;;;;6.67;4.67;;;13.00;67.60;;;11.50;53.51;99942.50;10259956;28;97892;-93
2023/03/21 19:16:08;;;;;;;7.70;5.00;;;12.80;67.90;;;11.28;53.98;99941.53;10263079;28;96632;-93
2023/03/21 19:21:13;;;;;;;6.30;4.00;;;12.70;68.40;;;11.13;54.44;99953.94;10262606;28;96672;-93
2023/03/21 19:26:16;;;;;;;6.73;4.10;;;12.50;68.70;;;11.03;55.02;99953.34;10242783;28;96483;-93
2023/03/21 19:31:21;;;;;;;7.63;4.73;;;12.40;69.20;;;11.03;55.27;99956.00;10257968;28;96940;-93
2023/03/21 19:36:24;;;;;;;5.67;4.20;;;12.30;69.70;;;10.98;55.35;99936.09;10243599;28;96750;-93
2023/03/21 19:41:28;;;;;;;5.67;4.20;;;12.30;69.90;;;11.10;55.21;99946.34;10231875;28;96566;-93
2023/03/21 19:46:31;;;;;;;8.87;5.00;;;12.40;70.10;;;11.18;55.30;99952.41;10253724;28;96650;-93
2023/03/21 19:51:35;;;;;;;6.80;4.13;;;12.40;70.10;;;11.34;54.62;99948.81;10265773;28;97325;-93
2023/03/21 19:56:39;;;;;;;7.00;4.40;;;12.50;70.00;;;11.43;54.89;99953.03;10245198;28;98521;-92
2023/03/21 20:01:50;;;;;;;7.43;4.15;;;12.60;69.90;;;11.42;54.42;99942.59;10245774;28;96684;-93
2023/03/21 20:07:00;;;;;;;5.47;3.78;;;12.60;69.70;;;11.49;54.38;99954.97;10238268;28;96658;-93
2023/03/21 20:12:04;;;;;;;7.17;4.20;;;12.70;69.70;;;11.46;54.29;99965.16;10256624;28;96547;-92
2023/03/21 20:17:07;;;;;;;6.73;3.77;;;12.70;69.50;;;11.44;54.06;99969.81;10257717;28;96577;-93
2023/03/21 20:22:12;;;;;;;7.80;5.10;;;12.70;69.40;;;11.45;54.21;99966.97;10275793;28;96642;-93
2023/03/21 20:27:30;;;;;;;10.53;6.73;;;12.70;69.50;;;11.25;54.64;99984.44;10264873;28;96507;-93
2023/03/21 20:32:34;;;;;;;9.27;5.23;;;12.60;69.40;;;11.10;55.25;99980.91;10236164;28;96824;-93
2023/03/21 20:37:40;;;;;;;7.20;4.37;;;12.50;69.90;;;11.03;55.49;99982.59;10287831;28;97090;-91
2023/03/21 20:42:44;;;;;;;8.10;5.20;;;12.40;70.10;;;10.90;55.69;99993.81;10282994;28;96626;-92
2023/03/21 20:47:50;;;;;;;8.17;5.40;;;12.30;70.10;;;10.67;55.99;99991.09;10271925;28;96654;-93
2023/03/21 20:52:53;;;;;;;12.20;7.23;;;12.10;70.30;;;10.38;56.61;100008.50;10248215;28;96686;-93
2023/03/21 20:58:12;;;;;;;7.37;5.03;;;11.90;70.70;;;10.04;57.06;99998.09;10253050;28;96533;-91
2023/03/21 21:03:39;;;;;;;10.30;5.37;;;11.60;71.00;;;9.74;58.24;99994.31;10280894;28;96734;-92
2023/03/21 21:08:45;;;;;;;9.10;5.93;;;11.30;71.50;;;9.58;59.04;100012.88;10219180;28;97281;-92
2023/03/21 21:13:48;;;;;;;8.40;5.30;;;11.10;72.10;;;9.47;59.83;100008.75;10207776;28;96507;-92
2023/03/21 21:18:51;;;;;;;8.93;5.43;;;11.00;72.80;;;9.55;60.94;100016.72;10269516;28;97319;-93
2023/03/21 21:23:54;;;;;;;8.77;5.40;;;11.00;73.60;;;9.60;60.68;100013.56;10265204;28;96531;-92
2023/03/21 21:28:59;;;;;;;8.70;5.90;;;11.10;73.90;;;9.63;60.88;100015.88;10253448;28;98387;-93